createdAt,value
2022-08-08T07:30:00.478Z,22.10
2022-08-08T07:32:17.141Z,22.20
2022-08-08T07:35:00.545Z,22.30
2022-08-08T07:37:55.995Z,22.40
2022-08-08T07:41:04.568Z,22.50
2022-08-08T07:43:38.101Z,22.60
2022-08-08T07:46:23.128Z,22.60
2022-08-08T07:49:01.961Z,22.70
2022-08-08T07:51:53.049Z,22.60
2022-08-08T07:54:39.991Z,22.10
2022-08-08T07:57:21.142Z,21.50
2022-08-08T08:00:01.950Z,21.30
2022-08-08T08:03:20.611Z,21.10
2022-08-08T08:06:00.502Z,21.50
2022-08-08T08:08:52.199Z,21.80
2022-08-08T08:11:34.021Z,22.00
2022-08-08T08:14:43.790Z,22.20
2022-08-08T08:17:20.876Z,22.30
2022-08-08T08:19:55.617Z,22.30
2022-08-08T08:22:31.700Z,22.40
2022-08-08T08:25:07.473Z,22.50
2022-08-08T08:27:46.711Z,22.50
2022-08-08T08:30:17.280Z,22.60
2022-08-08T08:32:51.517Z,22.70
2022-08-08T08:35:29.976Z,22.70
2022-08-08T08:38:17.522Z,22.10
2022-08-08T08:40:56.315Z,21.80
2022-08-08T08:43:26.894Z,21.40
2022-08-08T08:46:05.497Z,21.20
2022-08-08T08:48:36.247Z,21.10
2022-08-08T08:51:11.015Z,21.30
2022-08-08T08:53:56.218Z,21.60
2022-08-08T08:56:34.926Z,21.90
2022-08-08T08:59:15.060Z,22.10
2022-08-08T09:01:56.903Z,22.20
2022-08-08T09:04:38.618Z,22.40
2022-08-08T09:07:23.931Z,22.40
2022-08-08T09:10:16.970Z,22.50
2022-08-08T09:12:51.691Z,22.60
2022-08-08T09:15:37.535Z,22.60
2022-08-08T09:18:11.351Z,22.70
2022-08-08T09:21:58.132Z,22.70
2022-08-08T09:23:40.615Z,22.40
2022-08-08T09:26:21.404Z,21.90
2022-08-08T09:28:55.702Z,21.60
2022-08-08T09:31:56.437Z,21.40
2022-08-08T09:35:03.089Z,21.20
2022-08-08T09:38:01.298Z,21.10
2022-08-08T09:40:47.873Z,21.50
2022-08-08T09:43:40.718Z,21.90
2022-08-08T09:46:25.422Z,22.10
2022-08-08T09:49:41.468Z,22.20
2022-08-08T09:52:07.053Z,22.30
2022-08-08T09:54:46.898Z,22.40
2022-08-08T09:57:25.044Z,22.50
2022-08-08T10:02:51.340Z,22.60
2022-08-08T10:05:27.675Z,22.70
2022-08-08T10:08:01.366Z,22.50
2022-08-08T10:10:36.782Z,22.00
2022-08-08T10:13:32.358Z,21.60
2022-08-08T10:16:05.362Z,21.30
2022-08-08T10:18:36.419Z,21.20
2022-08-08T10:21:22.480Z,21.10
2022-08-08T10:23:59.682Z,21.50
2022-08-08T10:26:56.895Z,21.90
2022-08-08T10:29:58.213Z,22.10
2022-08-08T10:32:30.270Z,22.20
2022-08-08T10:35:03.586Z,22.30
2022-08-08T10:37:34.424Z,22.40
2022-08-08T10:40:17.469Z,22.50
2022-08-08T10:42:51.095Z,22.50
2022-08-08T10:45:19.839Z,22.60
2022-08-08T10:47:55.931Z,22.60
2022-08-08T10:50:33.080Z,22.70
2022-08-08T10:53:07.505Z,22.40
2022-08-08T10:55:46.324Z,21.90
2022-08-08T10:58:16.111Z,21.50
2022-08-08T11:00:53.309Z,21.30
2022-08-08T11:04:00.826Z,21.20
2022-08-08T11:06:34.234Z,21.00
2022-08-08T11:09:20.238Z,21.00
2022-08-08T11:12:04.738Z,21.30
2022-08-08T11:14:35.612Z,21.70
2022-08-08T11:17:06.372Z,21.90
2022-08-08T11:19:46.580Z,22.00
2022-08-08T11:22:26.978Z,22.10
2022-08-08T11:25:00.188Z,22.20
2022-08-08T11:27:36.974Z,22.30
2022-08-08T11:30:24.489Z,22.40
2022-08-08T11:32:57.647Z,22.50
2022-08-08T11:35:42.548Z,22.50
2022-08-08T11:38:38.480Z,22.60
2022-08-08T11:41:12.814Z,22.60
2022-08-08T11:43:43.109Z,22.00
2022-08-08T11:46:17.899Z,21.60
2022-08-08T11:48:48.082Z,21.40
2022-08-08T11:51:34.963Z,21.20
2022-08-08T11:54:31.768Z,21.00
2022-08-08T11:57:13.857Z,20.90
2022-08-08T12:00:01.909Z,21.10
2022-08-08T12:03:02.669Z,21.50
2022-08-08T12:05:35.981Z,21.80
2022-08-08T12:08:04.783Z,22.00
2022-08-08T12:10:34.165Z,22.10
2022-08-08T12:13:33.309Z,22.20
2022-08-08T12:16:15.707Z,22.30
2022-08-08T12:18:53.424Z,22.40
2022-08-08T12:22:00.422Z,22.40
2022-08-08T12:24:29.760Z,22.50
2022-08-08T12:26:59.202Z,22.60
2022-08-08T12:29:40.535Z,22.50
2022-08-08T12:32:20.832Z,22.00
2022-08-08T12:35:13.082Z,21.60
2022-08-08T12:38:01.900Z,21.30
2022-08-08T12:40:56.831Z,21.20
2022-08-08T12:43:48.021Z,21.20
2022-08-08T12:46:24.859Z,21.60
2022-08-08T12:49:43.768Z,21.90
2022-08-08T12:51:53.677Z,22.10
2022-08-08T12:54:35.972Z,22.20
2022-08-08T12:57:25.984Z,22.30
2022-08-08T13:00:04.640Z,22.40
2022-08-08T13:02:51.822Z,22.50
2022-08-08T13:05:26.808Z,22.50
2022-08-08T13:08:19.602Z,22.60
2022-08-08T13:10:56.143Z,22.70
2022-08-08T13:13:35.038Z,22.40
2022-08-08T13:16:19.993Z,22.00
2022-08-08T13:18:58.416Z,21.60
2022-08-08T13:21:53.528Z,21.50
2022-08-08T13:24:40.924Z,21.20
2022-08-08T13:27:14.694Z,21.10
2022-08-08T13:29:55.004Z,21.00
2022-08-08T13:32:27.506Z,21.10
2022-08-08T13:35:01.312Z,21.50
2022-08-08T13:38:03.250Z,21.80
2022-08-08T13:40:26.530Z,21.90
2022-08-08T13:42:57.699Z,22.10
2022-08-08T13:45:26.578Z,22.20
2022-08-08T13:48:00.508Z,22.30
2022-08-08T13:50:35.491Z,22.40
2022-08-08T13:53:25.089Z,22.50
2022-08-08T13:56:02.904Z,22.50
2022-08-08T13:58:33.144Z,22.60
2022-08-08T14:01:19.076Z,22.20
2022-08-08T14:03:57.518Z,21.70
2022-08-08T14:06:34.028Z,21.50
2022-08-08T14:09:25.441Z,21.30
2022-08-08T14:12:01.338Z,21.20
2022-08-08T14:14:41.866Z,21.00
2022-08-08T14:17:22.614Z,21.00
2022-08-08T14:20:15.675Z,20.90
2022-08-08T14:22:57.228Z,21.20
2022-08-08T14:25:27.672Z,21.60
2022-08-08T14:28:00.215Z,21.90
2022-08-08T14:30:50.143Z,22.00
2022-08-08T14:33:36.290Z,22.20
2022-08-08T14:36:09.382Z,22.20
2022-08-08T14:38:52.651Z,22.30
2022-08-08T14:41:53.848Z,22.40
2022-08-08T14:44:21.230Z,22.50
2022-08-08T14:47:16.561Z,22.30
2022-08-08T14:50:06.366Z,21.80
2022-08-08T14:53:10.829Z,21.50
2022-08-08T14:55:45.466Z,21.30
2022-08-08T14:58:16.879Z,21.10
2022-08-08T15:00:54.597Z,21.00
2022-08-08T15:03:24.477Z,20.80
2022-08-08T16:26:23.021Z,22.40
2022-08-08T16:29:07.760Z,22.10
2022-08-08T16:31:38.697Z,21.90
2022-08-08T16:34:07.453Z,21.70
2022-08-08T16:36:40.800Z,21.60
2022-08-08T16:39:28.071Z,22.00
2022-08-08T16:42:00.914Z,22.30
2022-08-08T16:44:33.743Z,22.60
2022-08-08T16:47:21.618Z,22.70
2022-08-08T16:49:50.871Z,22.80
2022-08-08T16:55:00.889Z,22.90
2022-08-08T16:55:34.357Z,23.00
2022-08-08T16:58:14.908Z,23.10
2022-08-08T17:00:49.287Z,23.10
2022-08-08T17:03:25.095Z,23.20
2022-08-08T17:06:23.513Z,23.20
2022-08-08T17:08:59.290Z,23.20
2022-08-08T17:11:28.194Z,22.80
2022-08-08T17:14:18.003Z,22.30
2022-08-08T17:16:57.441Z,22.00
2022-08-08T17:19:29.741Z,21.80
2022-08-08T17:22:01.360Z,21.60
2022-08-08T17:24:34.667Z,21.50
2022-08-08T17:27:05.805Z,21.40
2022-08-08T17:29:43.750Z,21.30
2022-08-08T17:32:28.919Z,21.30
2022-08-08T17:35:53.939Z,21.70
2022-08-08T17:37:53.301Z,22.10
2022-08-08T17:40:22.315Z,22.30
2022-08-08T17:42:51.839Z,22.40
2022-08-08T17:45:22.623Z,22.50
2022-08-08T17:47:51.953Z,22.60
2022-08-08T17:50:22.991Z,22.70
2022-08-08T17:52:51.422Z,22.80
2022-08-08T17:56:05.736Z,22.90
2022-08-08T17:58:08.174Z,22.90
2022-08-08T18:00:41.570Z,23.00
2022-08-08T18:03:13.132Z,22.50
2022-08-08T18:05:44.222Z,22.10
2022-08-08T18:08:37.691Z,21.80
2022-08-08T18:11:17.619Z,21.60
2022-08-08T18:13:47.671Z,21.40
2022-08-08T18:16:23.078Z,21.30
2022-08-08T18:18:57.559Z,21.20
2022-08-08T18:22:00.548Z,21.40
2022-08-08T18:24:21.708Z,21.80
2022-08-08T18:26:54.526Z,22.10
2022-08-08T18:29:29.840Z,22.30
2022-08-08T18:32:06.828Z,22.40
2022-08-08T18:34:37.690Z,22.50
2022-08-08T18:37:09.436Z,22.60
2022-08-08T18:39:42.235Z,22.70
2022-08-08T18:42:15.788Z,22.70
2022-08-08T18:44:55.319Z,22.80
2022-08-08T18:47:33.717Z,22.90
2022-08-08T18:50:02.989Z,22.50
2022-08-08T18:52:37.691Z,22.00
2022-08-08T18:55:13.151Z,21.70
2022-08-08T18:57:48.768Z,21.50
2022-08-08T19:00:21.552Z,21.30
2022-08-08T19:02:55.633Z,21.20
2022-08-08T19:05:34.109Z,21.10
2022-08-08T19:08:25.862Z,21.20
2022-08-08T19:11:01.767Z,21.60
2022-08-08T19:13:38.471Z,21.90
2022-08-08T19:16:21.062Z,22.10
2022-08-08T19:19:02.647Z,22.30
2022-08-08T19:21:47.951Z,22.40
2022-08-08T19:24:41.789Z,22.50
2022-08-08T19:27:08.234Z,22.60
2022-08-08T19:29:40.665Z,22.70
2022-08-08T19:32:13.240Z,22.70
2022-08-08T19:34:51.328Z,22.80
2022-08-08T19:37:42.273Z,22.80
2022-08-08T19:40:14.496Z,22.40
2022-08-08T19:42:48.600Z,21.90
2022-08-08T19:45:59.360Z,21.60
2022-08-08T19:48:07.893Z,21.40
2022-08-08T19:50:56.222Z,21.20
2022-08-08T19:53:51.093Z,21.50
2022-08-08T19:56:13.887Z,21.80
2022-08-08T19:58:51.789Z,22.10
2022-08-08T20:01:25.789Z,22.30
2022-08-08T20:04:03.230Z,22.40
2022-08-08T20:06:32.159Z,22.50
2022-08-08T20:09:00.650Z,22.60
2022-08-08T20:11:42.839Z,22.70
2022-08-08T20:14:34.352Z,22.70
2022-08-08T20:16:59.961Z,22.80
2022-08-08T20:19:34.627Z,22.70
2022-08-08T20:22:13.143Z,22.20
2022-08-08T20:24:49.718Z,21.80
2022-08-08T20:27:20.488Z,21.50
2022-08-08T20:29:55.881Z,21.30
2022-08-08T20:32:31.916Z,21.20
2022-08-08T20:35:02.420Z,21.30
2022-08-08T20:37:47.022Z,21.80
2022-08-08T20:40:33.520Z,22.00
2022-08-08T20:43:16.279Z,22.20
2022-08-08T20:45:57.390Z,22.30
2022-08-08T20:48:28.343Z,22.50
2022-08-08T20:50:56.893Z,22.50
2022-08-08T20:53:59.113Z,22.60
2022-08-08T20:56:13.999Z,22.70
2022-08-08T20:58:46.780Z,22.80
2022-08-08T21:01:19.474Z,22.80
2022-08-08T21:03:59.771Z,22.80
2022-08-08T21:06:33.710Z,22.30
2022-08-08T21:09:18.604Z,21.80
2022-08-08T21:11:52.115Z,21.50
2022-08-08T21:14:33.793Z,21.40
2022-08-08T21:17:06.294Z,21.20
2022-08-08T21:19:45.854Z,21.40
2022-08-08T21:22:15.861Z,21.80
2022-08-08T21:24:52.759Z,22.10
2022-08-08T21:28:06.614Z,22.20
2022-08-08T21:30:19.053Z,22.40
2022-08-08T21:32:51.712Z,22.50
2022-08-08T21:36:16.799Z,22.50
2022-08-08T21:38:16.848Z,22.60
2022-08-08T21:40:55.468Z,22.70
2022-08-08T21:43:33.551Z,22.80
2022-08-08T21:48:00.279Z,22.90
2022-08-08T21:48:56.345Z,22.60
2022-08-08T21:54:33.581Z,22.10
2022-08-08T21:54:52.102Z,21.80
2022-08-08T21:57:06.368Z,21.60
2022-08-08T22:00:03.041Z,21.40
2022-08-08T22:02:24.192Z,21.30
2022-08-08T22:04:55.703Z,21.10
2022-08-08T22:07:40.268Z,21.10
2022-08-08T22:10:18.286Z,21.00
2022-08-08T22:13:18.578Z,21.30
2022-08-08T22:15:59.339Z,21.70
2022-08-08T22:18:33.532Z,21.90
2022-08-08T22:21:10.794Z,22.10
2022-08-08T22:23:50.444Z,22.20
2022-08-08T22:26:28.987Z,22.30
2022-08-08T22:29:15.001Z,22.40
2022-08-08T22:32:01.512Z,22.50
2022-08-08T22:34:33.139Z,22.60
2022-08-08T22:37:27.761Z,22.60
2022-08-08T22:40:01.117Z,22.70
2022-08-08T22:42:31.657Z,22.50
2022-08-08T22:45:13.686Z,21.90
2022-08-08T22:47:46.626Z,21.60
2022-08-08T22:50:25.863Z,21.30
2022-08-08T22:54:28.262Z,21.20
2022-08-08T22:56:01.645Z,21.20
2022-08-08T22:58:35.055Z,21.60
2022-08-08T23:02:01.607Z,21.90
2022-08-08T23:03:58.037Z,22.10
2022-08-08T23:06:27.224Z,22.20
2022-08-08T23:08:58.547Z,22.30
2022-08-08T23:12:17.587Z,22.40
2022-08-08T23:14:20.990Z,22.50
2022-08-08T23:16:56.097Z,22.60
2022-08-08T23:19:32.284Z,22.60
2022-08-08T23:22:04.454Z,22.70
2022-08-08T23:24:36.365Z,22.50
2022-08-08T23:27:06.846Z,22.00
2022-08-08T23:29:35.686Z,21.60
2022-08-08T23:32:06.659Z,21.40
2022-08-08T23:34:39.630Z,21.20
2022-08-08T23:37:18.085Z,21.10
2022-08-08T23:39:55.317Z,21.30
2022-08-08T23:42:26.224Z,21.70
2022-08-08T23:44:56.250Z,21.90
2022-08-08T23:49:06.572Z,22.10
2022-08-08T23:50:30.052Z,22.20
2022-08-08T23:53:05.011Z,22.30
2022-08-08T23:55:42.240Z,22.40
2022-08-08T23:58:31.899Z,22.50
